You are listening to:
KJFK D-ATIS - New York, New York, United States

KJFK 250351Z 24011KT 10SM FEW070 OVC110 11/M01 A3006 RMK AO2 SLP180 T01061006

If stream does not start automatically press the play button